ベルリン/テーゲル の空港の天気 - METARとTAF

ベルリン・テーゲル国際空港 ( EDDT / TXL ) - ドイツ ベルリン
飛行場実況気象(Metar)
観測時間10/20 06:20 CEST (10/20 04:20 UTC)
風向・風速不定 1m/s
視程10km以上
天気現象
なし
気温13℃
湿度82%
気圧1009hPa
METAREDDT 200420Z VRB02KT CAVOK 13/10 Q1009 NOSIG
過去の天気等 Google飛行場航空写真 Wunderground天気予報

過去48時間のMETAR

飛行場予報(TAF)
発表時間: 10/20 01:00 CEST (10/19 23:00 UTC)
予報対象時間: 20日2時 CEST ~ 21日2時 CEST
風向・風速南南東 3m/s
視程10km以上
なし
20日17時 CEST ~ 20日20時 CEST に徐々に
風向・風速東 2m/s
TAF EDDT 192300Z 2000/2024 16005KT CAVOK
BECMG 2015/2018 10004KT